LYBE/BEG METAR and TAF weather

Enter ICAO airport designator
Station Type Date Time Source
LYBE METAR 2019/10/21 04:30 UTC NOAA

LYBE 210430Z 18006KT 8000 NSC 12/09 Q1021 TEMPO 3000 BR


Station Type Date Time Source
LYBE Decoded METAR 2019/10/21 04:30 UTC NOAA

Beograd / Surcin, Serbia and Montenegro (LYBE) 44-49N 020-17E 99M
Oct 21, 2019 - 12:30 AM EDT / 2019.10.21 0430 UTC
Wind: from the S (180 degrees) at 7 MPH (6 KT):0
Visibility: 4 mile(s):0
Temperature: 53 F (12 C)
Dew Point: 48 F (9 C)
Relative Humidity: 81%
Pressure (altimeter): 30.15 in. Hg (1021 hPa)
ob: LYBE 210430Z 18006KT 8000 NSC 12/09 Q1021 TEMPO 3000 BR
cycle: 4

Station Type Date Time Source
LYBE TAF 2019/10/20 18:21 UTC NOAA

TAF LYBE 201700Z 2018/2118 08004KT 7000 NSC TX26/2113Z TN11/2104Z
BECMG 2023/2101 4000 BR
TEMPO 2104/2106 1500
BECMG 2106/2108 9999 NSW

Example: see airport list